createdAt,value
2018-04-15T00:00:42.776Z,1005.52
2018-04-15T00:01:42.754Z,1005.53
2018-04-15T00:02:42.731Z,1005.56
2018-04-15T00:03:42.708Z,1005.54
2018-04-15T00:04:42.686Z,1005.5
2018-04-15T00:05:42.662Z,1005.48
2018-04-15T00:06:42.642Z,1005.49
2018-04-15T00:07:42.617Z,1005.49
2018-04-15T00:08:42.596Z,1005.45
2018-04-15T00:09:42.573Z,1005.45
2018-04-15T00:10:42.552Z,1005.47
2018-04-15T00:11:42.528Z,1005.49
2018-04-15T00:12:42.504Z,1005.44
2018-04-15T00:13:42.483Z,1005.44
2018-04-15T00:14:42.460Z,1005.42
2018-04-15T00:15:42.438Z,1005.48
2018-04-15T00:16:42.415Z,1005.48
2018-04-15T00:17:42.394Z,1005.42
2018-04-15T00:18:42.372Z,1005.53
2018-04-15T00:19:42.351Z,1005.62
2018-04-15T00:20:42.328Z,1005.74
2018-04-15T00:21:42.307Z,1005.81
2018-04-15T00:22:42.282Z,1005.86
2018-04-15T00:23:42.259Z,1005.93
2018-04-15T00:24:42.238Z,1005.96
2018-04-15T00:25:42.214Z,1005.92
2018-04-15T00:26:42.192Z,1005.9
2018-04-15T00:27:42.168Z,1005.85
2018-04-15T00:28:42.148Z,1005.79
2018-04-15T00:29:42.125Z,1005.85
2018-04-15T00:30:42.103Z,1005.88
2018-04-15T00:31:42.080Z,1005.83
2018-04-15T00:32:42.058Z,1005.79
2018-04-15T00:33:42.034Z,1005.78
2018-04-15T00:34:42.014Z,1005.77
2018-04-15T00:35:41.991Z,1005.77
2018-04-15T00:36:41.967Z,1005.74
2018-04-15T00:37:41.945Z,1005.73
2018-04-15T00:38:41.923Z,1005.71
2018-04-15T00:39:41.901Z,1005.68
2018-04-15T00:40:41.877Z,1005.72
2018-04-15T00:41:41.855Z,1005.69
2018-04-15T00:42:41.833Z,1005.68
2018-04-15T00:43:41.809Z,1005.69
2018-04-15T00:44:41.787Z,1005.66
2018-04-15T00:45:41.765Z,1005.67
2018-04-15T00:46:41.742Z,1005.64
2018-04-15T00:47:41.719Z,1005.66
2018-04-15T00:48:41.696Z,1005.67
2018-04-15T00:49:41.674Z,1005.65
2018-04-15T00:50:41.651Z,1005.69
2018-04-15T00:51:41.628Z,1005.7
2018-04-15T00:52:41.606Z,1005.66
2018-04-15T00:53:41.584Z,1005.63
2018-04-15T00:54:41.662Z,1005.64
2018-04-15T00:55:41.540Z,1005.64
2018-04-15T00:56:41.520Z,1005.65
2018-04-15T00:57:41.495Z,1005.64
2018-04-15T00:58:41.474Z,1005.63
2018-04-15T00:59:41.451Z,1005.65
2018-04-15T01:00:41.429Z,1005.67
2018-04-15T01:01:41.407Z,1005.62
2018-04-15T01:02:41.384Z,1005.59
2018-04-15T01:03:41.362Z,1005.57
2018-04-15T01:04:41.340Z,1005.51
2018-04-15T01:05:41.316Z,1005.54
2018-04-15T01:06:41.295Z,1005.54
2018-04-15T01:07:41.271Z,1005.54
2018-04-15T01:08:41.249Z,1005.57
2018-04-15T01:09:41.227Z,1005.58
2018-04-15T01:10:41.204Z,1005.57
2018-04-15T01:11:41.186Z,1005.52
2018-04-15T01:12:41.166Z,1005.55
2018-04-15T01:13:41.137Z,1005.47
2018-04-15T01:14:41.116Z,1005.5
2018-04-15T01:15:41.097Z,1005.47
2018-04-15T01:16:41.070Z,1005.46
2018-04-15T01:17:41.046Z,1005.46
2018-04-15T01:18:41.023Z,1005.45
2018-04-15T01:19:41.001Z,1005.45
2018-04-15T01:20:40.979Z,1005.46
2018-04-15T01:21:40.957Z,1005.41
2018-04-15T01:22:40.944Z,1005.4
2018-04-15T01:23:40.917Z,1005.39
2018-04-15T01:24:40.887Z,1005.34
2018-04-15T01:25:40.865Z,1005.35
2018-04-15T01:26:40.843Z,1005.36
2018-04-15T01:27:40.820Z,1005.33
2018-04-15T01:28:40.799Z,1005.33
2018-04-15T01:29:40.776Z,1005.3
2018-04-15T01:30:40.754Z,1005.25
2018-04-15T01:31:40.732Z,1005.24
2018-04-15T01:32:40.707Z,1005.2
2018-04-15T01:33:40.686Z,1005.19
2018-04-15T01:34:40.663Z,1005.17
2018-04-15T01:35:40.641Z,1005.16
2018-04-15T01:36:40.617Z,1005.18
2018-04-15T01:37:40.597Z,1005.16
2018-04-15T01:38:40.573Z,1005.19
2018-04-15T01:39:40.550Z,1005.15
2018-04-15T01:40:40.528Z,1005.17
2018-04-15T01:41:40.505Z,1005.16
2018-04-15T01:42:40.482Z,1005.13
2018-04-15T01:43:40.460Z,1005.1
2018-04-15T01:44:40.438Z,1005.09
2018-04-15T01:45:40.415Z,1005.09
2018-04-15T01:46:40.393Z,1005.06
2018-04-15T01:47:40.369Z,1005.06
2018-04-15T01:48:40.347Z,1005.03
2018-04-15T01:49:40.325Z,1005.09
2018-04-15T01:50:40.301Z,1005.12
2018-04-15T01:51:40.279Z,1005.12
2018-04-15T01:52:40.256Z,1005.06
2018-04-15T01:53:40.234Z,1005.07
2018-04-15T01:54:40.211Z,1005.05
2018-04-15T01:55:40.188Z,1005.08
2018-04-15T01:56:40.167Z,1005.11
2018-04-15T01:57:40.144Z,1005.1
2018-04-15T01:58:40.120Z,1005.09
2018-04-15T01:59:40.099Z,1005.09
2018-04-15T02:00:40.075Z,1005.08
2018-04-15T02:01:40.053Z,1005.05
2018-04-15T02:02:40.031Z,1005.04
2018-04-15T02:03:40.010Z,1005
2018-04-15T02:04:39.986Z,1005.01
2018-04-15T02:05:39.964Z,1005.03
2018-04-15T02:06:39.944Z,1005.03
2018-04-15T02:07:39.919Z,1005
2018-04-15T02:08:39.896Z,1005.01
2018-04-15T02:09:39.877Z,1004.98
2018-04-15T02:10:39.852Z,1004.97
2018-04-15T02:11:39.828Z,1005
2018-04-15T02:12:39.807Z,1005.02
2018-04-15T02:13:39.792Z,1005
2018-04-15T02:14:39.763Z,1005.03
2018-04-15T02:15:39.739Z,1005.04
2018-04-15T02:16:39.716Z,1005
2018-04-15T02:17:39.695Z,1004.99
2018-04-15T02:18:39.673Z,1004.99
2018-04-15T02:19:39.649Z,1005.04
2018-04-15T02:20:39.628Z,1005.01
2018-04-15T02:21:39.605Z,1005.04
2018-04-15T02:22:39.582Z,1005.02
2018-04-15T02:23:39.560Z,1005
2018-04-15T02:24:39.538Z,1004.99
2018-04-15T02:25:39.515Z,1005.02
2018-04-15T02:26:39.496Z,1004.96
2018-04-15T02:27:39.470Z,1004.95
2018-04-15T02:28:39.448Z,1005
2018-04-15T02:29:39.477Z,1004.97
2018-04-15T02:30:39.408Z,1004.96
2018-04-15T02:31:39.382Z,1004.97
2018-04-15T02:32:39.359Z,1004.98
2018-04-15T02:33:39.337Z,1004.95
2018-04-15T02:34:39.314Z,1004.96
2018-04-15T02:35:39.293Z,1004.93
2018-04-15T02:36:39.271Z,1004.94
2018-04-15T02:37:39.248Z,1004.91
2018-04-15T02:38:39.227Z,1004.88
2018-04-15T02:39:39.205Z,1004.88
2018-04-15T02:40:39.181Z,1004.87
2018-04-15T02:41:39.159Z,1004.91
2018-04-15T02:42:39.137Z,1004.86
2018-04-15T02:43:39.115Z,1004.85
2018-04-15T02:44:39.092Z,1004.86
2018-04-15T02:45:39.070Z,1004.86
2018-04-15T02:46:39.049Z,1004.87
2018-04-15T02:47:39.027Z,1004.88
2018-04-15T02:48:39.003Z,1004.88
2018-04-15T02:49:38.980Z,1004.91
2018-04-15T02:50:38.963Z,1004.92
2018-04-15T02:51:38.937Z,1004.93
2018-04-15T02:52:38.914Z,1004.9
2018-04-15T02:53:38.893Z,1004.86
2018-04-15T02:54:38.869Z,1004.87
2018-04-15T02:55:38.847Z,1004.85
2018-04-15T02:56:38.827Z,1004.88
2018-04-15T02:57:38.805Z,1004.89
2018-04-15T02:58:38.783Z,1004.87
2018-04-15T02:59:38.760Z,1004.87
2018-04-15T03:00:38.736Z,1004.88
2018-04-15T03:01:38.714Z,1004.85
2018-04-15T03:02:38.692Z,1004.85
2018-04-15T03:03:38.670Z,1004.85
2018-04-15T03:04:38.649Z,1004.85
2018-04-15T03:05:38.628Z,1004.84
2018-04-15T03:06:38.604Z,1004.85
2018-04-15T03:07:38.586Z,1004.85
2018-04-15T03:08:38.560Z,1004.87
2018-04-15T03:09:38.539Z,1004.87
2018-04-15T03:10:38.517Z,1004.89
2018-04-15T03:11:38.494Z,1004.86
2018-04-15T03:12:38.471Z,1004.87
2018-04-15T03:13:38.447Z,1004.84
2018-04-15T03:14:38.426Z,1004.84
2018-04-15T03:15:38.404Z,1004.88
2018-04-15T03:16:38.382Z,1004.82
2018-04-15T03:17:38.358Z,1004.84
2018-04-15T03:18:38.336Z,1004.81
2018-04-15T03:19:38.314Z,1004.81
2018-04-15T03:20:38.293Z,1004.79
2018-04-15T03:21:38.270Z,1004.76
2018-04-15T03:22:38.248Z,1004.76
2018-04-15T03:23:38.225Z,1004.74
2018-04-15T03:24:38.206Z,1004.7
2018-04-15T03:25:38.181Z,1004.72
2018-04-15T03:26:38.159Z,1004.71
2018-04-15T03:27:38.137Z,1004.74
2018-04-15T03:28:38.113Z,1004.74
2018-04-15T03:29:38.092Z,1004.76
2018-04-15T03:30:38.069Z,1004.73
2018-04-15T03:31:38.047Z,1004.74
2018-04-15T03:32:38.025Z,1004.74
2018-04-15T03:33:38.001Z,1004.73
2018-04-15T03:34:37.985Z,1004.7
2018-04-15T03:35:37.958Z,1004.68
2018-04-15T03:36:37.936Z,1004.69
2018-04-15T03:37:37.914Z,1004.68
2018-04-15T03:38:37.892Z,1004.66
2018-04-15T03:39:37.868Z,1004.63
2018-04-15T03:40:37.846Z,1004.63
2018-04-15T03:41:37.824Z,1004.59
2018-04-15T03:42:37.803Z,1004.58
2018-04-15T03:43:37.781Z,1004.57
2018-04-15T03:44:37.757Z,1004.56
2018-04-15T03:45:37.735Z,1004.54
2018-04-15T03:46:37.713Z,1004.56
2018-04-15T03:47:37.691Z,1004.5
2018-04-15T03:48:37.669Z,1004.49
2018-04-15T03:49:37.654Z,1004.5
2018-04-15T03:50:37.626Z,1004.51
2018-04-15T03:51:37.601Z,1004.5
2018-04-15T03:52:37.579Z,1004.48
2018-04-15T03:53:37.558Z,1004.53
2018-04-15T03:54:37.536Z,1004.49
2018-04-15T03:55:37.512Z,1004.52
2018-04-15T03:56:37.491Z,1004.46
2018-04-15T03:57:37.468Z,1004.49
2018-04-15T03:58:37.446Z,1004.44
2018-04-15T03:59:37.425Z,1004.46
2018-04-15T04:00:37.402Z,1004.46
2018-04-15T04:01:37.388Z,1004.48
2018-04-15T04:02:37.355Z,1004.45
2018-04-15T04:03:37.334Z,1004.45
2018-04-15T04:04:37.311Z,1004.43
2018-04-15T04:05:37.290Z,1004.43
2018-04-15T04:06:37.268Z,1004.47
2018-04-15T04:07:37.246Z,1004.48
2018-04-15T04:08:37.222Z,1004.48
2018-04-15T04:09:37.206Z,1004.44
2018-04-15T04:10:37.179Z,1004.44
2018-04-15T04:11:37.157Z,1004.43
2018-04-15T04:12:37.134Z,1004.44
2018-04-15T04:13:37.115Z,1004.44
2018-04-15T04:14:37.090Z,1004.43
2018-04-15T04:15:37.067Z,1004.41
2018-04-15T04:16:37.045Z,1004.45
2018-04-15T04:17:37.023Z,1004.43
2018-04-15T04:18:37.001Z,1004.44
2018-04-15T04:19:36.978Z,1004.4
2018-04-15T04:20:36.955Z,1004.41
2018-04-15T04:21:36.937Z,1004.43
2018-04-15T04:22:36.915Z,1004.46
2018-04-15T04:23:36.891Z,1004.45
2018-04-15T04:24:36.868Z,1004.48
2018-04-15T04:25:36.844Z,1004.52
2018-04-15T04:26:36.821Z,1004.6
2018-04-15T04:27:36.804Z,1004.62
2018-04-15T04:28:36.781Z,1004.59
2018-04-15T04:29:36.756Z,1004.59
2018-04-15T04:30:36.733Z,1004.58
2018-04-15T04:31:36.711Z,1004.64
2018-04-15T04:32:36.689Z,1004.65
2018-04-15T04:33:36.668Z,1004.63
2018-04-15T04:34:36.644Z,1004.6
2018-04-15T04:35:36.623Z,1004.59
2018-04-15T04:36:36.600Z,1004.6
2018-04-15T04:37:36.576Z,1004.6
2018-04-15T04:38:36.573Z,1004.58
2018-04-15T04:39:36.533Z,1004.58
2018-04-15T04:40:36.511Z,1004.59
2018-04-15T04:41:36.487Z,1004.59
2018-04-15T04:42:36.466Z,1004.59
2018-04-15T04:43:36.443Z,1004.58
2018-04-15T04:44:36.423Z,1004.58
2018-04-15T04:45:36.398Z,1004.6
2018-04-15T04:46:36.376Z,1004.57
2018-04-15T04:47:36.354Z,1004.59
2018-04-15T04:48:36.330Z,1004.6
2018-04-15T04:49:36.309Z,1004.58
2018-04-15T04:50:36.286Z,1004.62
2018-04-15T04:51:36.264Z,1004.59
2018-04-15T04:52:36.240Z,1004.62
2018-04-15T04:53:36.219Z,1004.63
2018-04-15T04:54:36.195Z,1004.6
2018-04-15T04:55:36.174Z,1004.62
2018-04-15T04:56:36.152Z,1004.62
2018-04-15T04:57:36.130Z,1004.6
2018-04-15T04:58:36.107Z,1004.61
2018-04-15T04:59:36.085Z,1004.57
2018-04-15T05:00:36.061Z,1004.6
2018-04-15T05:01:36.045Z,1004.6
2018-04-15T05:02:36.018Z,1004.61
2018-04-15T05:03:35.994Z,1004.62
2018-04-15T05:04:35.972Z,1004.6
2018-04-15T05:05:35.950Z,1004.58
2018-04-15T05:06:35.928Z,1004.62
2018-04-15T05:07:35.918Z,1004.65
2018-04-15T05:08:35.882Z,1004.66
2018-04-15T05:09:35.859Z,1004.63
2018-04-15T05:10:35.843Z,1004.61
2018-04-15T05:11:35.813Z,1004.65
2018-04-15T05:12:35.792Z,1004.67
2018-04-15T05:13:35.771Z,1004.64
2018-04-15T05:14:35.746Z,1004.67
2018-04-15T05:15:35.731Z,1004.66
2018-04-15T05:16:35.704Z,1004.66
2018-04-15T05:17:35.680Z,1004.65
2018-04-15T05:18:35.656Z,1004.66
2018-04-15T05:19:35.635Z,1004.64
2018-04-15T05:20:35.612Z,1004.65
2018-04-15T05:21:35.588Z,1004.66
2018-04-15T05:22:35.570Z,1004.66
2018-04-15T05:23:35.545Z,1004.69
2018-04-15T05:24:35.523Z,1004.69
2018-04-15T05:25:35.499Z,1004.67
2018-04-15T05:26:35.477Z,1004.64
2018-04-15T05:27:35.456Z,1004.68
2018-04-15T05:28:35.433Z,1004.68
2018-04-15T05:29:35.411Z,1004.69
2018-04-15T05:30:35.387Z,1004.68
2018-04-15T05:31:35.367Z,1004.65
2018-04-15T05:32:35.342Z,1004.66
2018-04-15T05:33:35.321Z,1004.66
2018-04-15T05:34:35.298Z,1004.66
2018-04-15T05:35:35.276Z,1004.67
2018-04-15T05:36:35.253Z,1004.69
2018-04-15T05:37:35.278Z,1004.66
2018-04-15T05:38:35.208Z,1004.67
2018-04-15T05:39:35.185Z,1004.66
2018-04-15T05:40:35.166Z,1004.71
2018-04-15T05:41:35.141Z,1004.66
2018-04-15T05:42:35.120Z,1004.68
2018-04-15T05:43:35.096Z,1004.69
2018-04-15T05:44:35.082Z,1004.68
2018-04-15T05:45:35.052Z,1004.7
2018-04-15T05:46:35.029Z,1004.64
2018-04-15T05:47:35.021Z,1004.64
2018-04-15T05:48:34.984Z,1004.62
2018-04-15T05:49:34.963Z,1004.64
2018-04-15T05:50:34.939Z,1004.62
2018-04-15T05:51:34.917Z,1004.64
2018-04-15T05:52:34.895Z,1004.63
2018-04-15T05:53:34.877Z,1004.65
2018-04-15T05:54:34.848Z,1004.67
2018-04-15T05:55:34.829Z,1004.62
2018-04-15T05:56:34.806Z,1004.66
2018-04-15T05:57:34.783Z,1004.65
2018-04-15T05:58:34.760Z,1004.67
2018-04-15T05:59:34.775Z,1004.65
2018-04-15T06:00:34.716Z,1004.64
2018-04-15T06:01:34.695Z,1004.64
2018-04-15T06:02:34.675Z,1004.61
2018-04-15T06:03:34.652Z,1004.62
2018-04-15T06:04:34.624Z,1004.59
2018-04-15T06:05:34.601Z,1004.58
2018-04-15T06:06:34.580Z,1004.55
2018-04-15T06:07:34.558Z,1004.52
2018-04-15T06:08:34.536Z,1004.52
2018-04-15T06:09:34.515Z,1004.51
2018-04-15T06:10:34.491Z,1004.51
2018-04-15T06:11:34.467Z,1004.52
2018-04-15T06:12:34.444Z,1004.53
2018-04-15T06:13:34.423Z,1004.51
2018-04-15T06:14:34.406Z,1004.51
2018-04-15T06:15:34.386Z,1004.5
2018-04-15T06:16:34.360Z,1004.51
2018-04-15T06:17:34.334Z,1004.5
2018-04-15T06:18:34.314Z,1004.48
2018-04-15T06:19:34.291Z,1004.46
2018-04-15T06:20:34.269Z,1004.44
2018-04-15T06:21:34.245Z,1004.44
2018-04-15T06:22:34.224Z,1004.45
2018-04-15T06:23:34.200Z,1004.43
2018-04-15T06:24:34.197Z,1004.39
2018-04-15T06:25:34.157Z,1004.38
2018-04-15T06:26:34.138Z,1004.35
2018-04-15T06:27:34.113Z,1004.37
2018-04-15T06:28:34.097Z,1004.35
2018-04-15T06:29:34.069Z,1004.31
2018-04-15T06:30:34.052Z,1004.33
2018-04-15T06:31:34.025Z,1004.33
2018-04-15T06:32:34.005Z,1004.28
2018-04-15T06:33:33.981Z,1004.27
2018-04-15T06:34:33.959Z,1004.23
2018-04-15T06:35:33.936Z,1004.26
2018-04-15T06:36:33.916Z,1004.21
2018-04-15T06:37:33.894Z,1004.22
2018-04-15T06:38:33.872Z,1004.18
2018-04-15T06:39:33.850Z,1004.2
2018-04-15T06:40:33.872Z,1004.15
2018-04-15T06:41:33.806Z,1004.14
2018-04-15T06:42:33.782Z,1004.18
2018-04-15T06:43:33.776Z,1004.13
2018-04-15T06:44:33.740Z,1004.1
2018-04-15T06:45:33.717Z,1004.11
2018-04-15T06:46:33.703Z,1004.03
2018-04-15T06:47:33.674Z,1004.03
2018-04-15T06:48:33.653Z,1004.02
2018-04-15T06:49:33.630Z,1003.97
2018-04-15T06:50:33.609Z,1003.95
2018-04-15T06:51:33.588Z,1003.91
2018-04-15T06:52:33.566Z,1003.89
2018-04-15T06:53:33.541Z,1003.87
2018-04-15T06:54:33.521Z,1003.87
2018-04-15T06:55:33.501Z,1003.83
2018-04-15T06:56:33.477Z,1003.82
2018-04-15T06:57:33.455Z,1003.82
2018-04-15T06:58:33.433Z,1003.79
2018-04-15T06:59:33.412Z,1003.75
2018-04-15T07:00:33.389Z,1003.74
2018-04-15T07:01:33.380Z,1003.75
2018-04-15T07:02:33.347Z,1003.71
2018-04-15T07:03:33.326Z,1003.72
2018-04-15T07:04:33.305Z,1003.67
2018-04-15T07:05:33.282Z,1003.68
2018-04-15T07:06:33.260Z,1003.61
2018-04-15T07:07:33.238Z,1003.54
2018-04-15T07:08:33.217Z,1003.52
2018-04-15T07:09:33.209Z,1003.56
2018-04-15T07:10:33.175Z,1003.52
2018-04-15T07:11:33.152Z,1003.55
2018-04-15T07:12:33.131Z,1003.53
2018-04-15T07:13:33.114Z,1003.54
2018-04-15T07:14:33.090Z,1003.51
2018-04-15T07:15:33.068Z,1003.52
2018-04-15T07:16:33.053Z,1003.43
2018-04-15T07:17:33.028Z,1003.44
2018-04-15T07:18:33.006Z,1003.44
2018-04-15T07:19:32.986Z,1003.45
2018-04-15T07:20:32.965Z,1003.44
2018-04-15T07:21:32.944Z,1003.4
2018-04-15T07:22:32.922Z,1003.39
2018-04-15T07:23:32.903Z,1003.38
2018-04-15T07:24:32.915Z,1003.4
2018-04-15T07:25:32.861Z,1003.35
2018-04-15T07:26:32.887Z,1003.36
2018-04-15T07:27:32.820Z,1003.36
2018-04-15T07:28:32.800Z,1003.37
2018-04-15T07:29:32.780Z,1003.33
2018-04-15T07:30:32.759Z,1003.33
2018-04-15T07:31:32.740Z,1003.32
2018-04-15T07:32:32.719Z,1003.3
2018-04-15T07:33:32.699Z,1003.31
2018-04-15T07:34:32.678Z,1003.29
2018-04-15T07:35:32.657Z,1003.29
2018-04-15T07:36:32.676Z,1003.28
2018-04-15T07:37:32.617Z,1003.26
2018-04-15T07:38:32.601Z,1003.23
2018-04-15T07:39:32.578Z,1003.26
2018-04-15T07:40:32.558Z,1003.22
2018-04-15T07:41:32.538Z,1003.19
2018-04-15T07:42:32.519Z,1003.1
2018-04-15T07:43:32.498Z,1003.08
2018-04-15T07:44:32.478Z,1003.06
2018-04-15T07:45:32.463Z,1003.08
2018-04-15T07:46:32.441Z,1003.08
2018-04-15T07:47:32.421Z,1003.08
2018-04-15T07:48:32.401Z,1003.04
2018-04-15T07:49:32.481Z,1003.07
2018-04-15T07:50:32.366Z,1003.07
2018-04-15T07:51:32.344Z,1003.05
2018-04-15T07:52:32.324Z,1003.06
2018-04-15T07:53:32.305Z,1003.04
2018-04-15T07:54:32.286Z,1003.03
2018-04-15T07:55:32.267Z,1003.03
2018-04-15T07:56:32.248Z,1003.02
2018-04-15T07:57:32.232Z,1003.06
2018-04-15T07:58:32.210Z,1003.05
2018-04-15T07:59:32.192Z,1003.04
2018-04-15T08:00:32.174Z,1003
2018-04-15T08:01:32.155Z,1003
2018-04-15T08:02:32.136Z,1003.01
2018-04-15T08:03:32.118Z,1002.97
2018-04-15T08:04:32.100Z,1002.95
2018-04-15T08:05:32.083Z,1002.92
2018-04-15T08:06:32.065Z,1002.89
2018-04-15T08:07:32.048Z,1002.94
2018-04-15T08:08:32.030Z,1002.88
2018-04-15T08:09:32.014Z,1002.9
2018-04-15T08:10:31.995Z,1002.88
2018-04-15T08:11:31.977Z,1002.88
2018-04-15T08:12:31.961Z,1002.89
2018-04-15T08:13:31.948Z,1002.88
2018-04-15T08:14:31.927Z,1002.86
2018-04-15T08:15:31.911Z,1002.85
2018-04-15T08:16:31.895Z,1002.82
2018-04-15T08:17:31.878Z,1002.82
2018-04-15T08:18:31.860Z,1002.84
2018-04-15T08:19:31.846Z,1002.84
2018-04-15T08:20:31.828Z,1002.86
2018-04-15T08:21:31.812Z,1002.88
2018-04-15T08:22:31.797Z,1002.87
2018-04-15T08:23:31.782Z,1002.83
2018-04-15T08:24:31.766Z,1002.83
2018-04-15T08:25:31.747Z,1002.8
2018-04-15T08:26:31.732Z,1002.79
2018-04-15T08:27:31.717Z,1002.78
2018-04-15T08:28:31.699Z,1002.8
2018-04-15T08:29:31.685Z,1002.8
2018-04-15T08:30:31.668Z,1002.81
2018-04-15T08:31:31.653Z,1002.82
2018-04-15T08:32:31.635Z,1002.83
2018-04-15T08:33:31.620Z,1002.85
2018-04-15T08:34:31.604Z,1002.88
2018-04-15T08:35:31.588Z,1002.88
2018-04-15T08:36:31.569Z,1002.9
2018-04-15T08:37:31.574Z,1002.87
2018-04-15T08:38:31.538Z,1002.82
2018-04-15T08:39:31.522Z,1002.81
2018-04-15T08:40:31.504Z,1002.8
2018-04-15T08:41:31.491Z,1002.84
2018-04-15T08:42:31.472Z,1002.76
2018-04-15T08:43:31.456Z,1002.78
2018-04-15T08:44:31.440Z,1002.81
2018-04-15T08:45:31.424Z,1002.82
2018-04-15T08:46:31.407Z,1002.81
2018-04-15T08:47:31.390Z,1002.84
2018-04-15T08:48:31.374Z,1002.81
2018-04-15T08:49:31.357Z,1002.78
2018-04-15T08:50:31.341Z,1002.75
2018-04-15T08:51:31.322Z,1002.74
2018-04-15T08:52:31.307Z,1002.77
2018-04-15T08:53:31.289Z,1002.73
2018-04-15T08:54:31.319Z,1002.8
2018-04-15T08:55:31.254Z,1002.74
2018-04-15T08:56:31.237Z,1002.8
2018-04-15T08:57:31.245Z,1002.77
2018-04-15T08:58:31.201Z,1002.73
2018-04-15T08:59:31.185Z,1002.76
2018-04-15T09:00:31.164Z,1002.73
2018-04-15T09:01:31.147Z,1002.74
2018-04-15T09:02:31.129Z,1002.73
2018-04-15T09:03:31.114Z,1002.71
2018-04-15T09:04:31.094Z,1002.76
2018-04-15T09:05:31.077Z,1002.7
2018-04-15T09:06:31.059Z,1002.71
2018-04-15T09:07:31.042Z,1002.72
2018-04-15T09:08:31.028Z,1002.68
2018-04-15T09:09:31.006Z,1002.68
2018-04-15T09:10:30.992Z,1002.65
2018-04-15T09:11:30.972Z,1002.7
2018-04-15T09:12:30.952Z,1002.65
2018-04-15T09:13:30.935Z,1002.71
2018-04-15T09:14:30.918Z,1002.66
2018-04-15T09:15:30.898Z,1002.65
2018-04-15T09:16:30.888Z,1002.64
2018-04-15T09:17:30.868Z,1002.61
2018-04-15T09:18:30.848Z,1002.6
2018-04-15T09:19:30.835Z,1002.58
2018-04-15T09:20:30.813Z,1002.6
2018-04-15T09:21:30.794Z,1002.59
2018-04-15T09:22:30.777Z,1002.62
2018-04-15T09:23:30.763Z,1002.65
2018-04-15T09:24:30.742Z,1002.62
2018-04-15T09:25:30.725Z,1002.63
2018-04-15T09:26:30.711Z,1002.59
2018-04-15T09:27:30.691Z,1002.54
2018-04-15T09:28:30.674Z,1002.55
2018-04-15T09:29:30.686Z,1002.55
2018-04-15T09:30:30.644Z,1002.54
2018-04-15T09:31:30.623Z,1002.51
2018-04-15T09:32:30.606Z,1002.53
2018-04-15T09:33:30.588Z,1002.49
2018-04-15T09:34:30.568Z,1002.53
2018-04-15T09:35:30.553Z,1002.5
2018-04-15T09:36:30.536Z,1002.43
2018-04-15T09:37:30.515Z,1002.41
2018-04-15T09:38:30.502Z,1002.38
2018-04-15T09:39:30.484Z,1002.35
2018-04-15T09:40:30.469Z,1002.36
2018-04-15T09:41:30.449Z,1002.34
2018-04-15T09:42:30.433Z,1002.32
2018-04-15T09:43:30.417Z,1002.29
2018-04-15T09:44:30.395Z,1002.26
2018-04-15T09:45:30.382Z,1002.28
2018-04-15T09:46:30.360Z,1002.28
2018-04-15T09:47:30.347Z,1002.26
2018-04-15T09:48:30.326Z,1002.25
2018-04-15T09:49:30.308Z,1002.25
2018-04-15T09:50:30.294Z,1002.22
2018-04-15T09:51:30.274Z,1002.29
2018-04-15T09:52:30.285Z,1002.31
2018-04-15T09:53:30.257Z,1002.3
2018-04-15T09:54:30.224Z,1002.34
2018-04-15T09:55:30.207Z,1002.3
2018-04-15T09:56:30.189Z,1002.28
2018-04-15T09:57:30.175Z,1002.26
2018-04-15T09:58:30.158Z,1002.29
2018-04-15T09:59:30.137Z,1002.28
2018-04-15T10:00:30.127Z,1002.26
2018-04-15T10:01:30.105Z,1002.25
2018-04-15T10:02:30.089Z,1002.25
2018-04-15T10:03:30.077Z,1002.25
2018-04-15T10:04:30.079Z,1002.26
2018-04-15T10:05:30.037Z,1002.25
2018-04-15T10:06:30.025Z,1002.24
2018-04-15T10:07:30.430Z,1002.2
2018-04-15T10:08:29.984Z,1002.21
2018-04-15T10:09:29.968Z,1002.23
2018-04-15T10:10:29.950Z,1002.15
2018-04-15T10:11:29.933Z,1002.15
2018-04-15T10:12:29.917Z,1002.18
2018-04-15T10:13:29.902Z,1002.19
2018-04-15T10:14:29.882Z,1002.2
2018-04-15T10:15:29.864Z,1002.18
2018-04-15T10:16:29.850Z,1002.18
2018-04-15T10:17:29.831Z,1002.16
2018-04-15T10:18:29.815Z,1002.18
2018-04-15T10:19:29.798Z,1002.15
2018-04-15T10:20:29.785Z,1002.17
2018-04-15T10:21:29.780Z,1002.13
2018-04-15T10:22:29.761Z,1002.16
2018-04-15T10:23:29.730Z,1002.09
2018-04-15T10:24:29.715Z,1002.09
2018-04-15T10:25:29.702Z,1002.06
2018-04-15T10:26:29.688Z,1002.08
2018-04-15T10:27:29.682Z,1002.09
2018-04-15T10:28:29.653Z,1002.1
2018-04-15T10:29:29.633Z,1002.07
2018-04-15T10:30:29.620Z,1002.02
2018-04-15T10:31:29.604Z,1002.03
2018-04-15T10:32:29.592Z,1002
2018-04-15T10:33:29.572Z,1002.03
2018-04-15T10:34:29.559Z,1001.99
2018-04-15T10:35:29.539Z,1001.98
2018-04-15T10:36:29.531Z,1001.99
2018-04-15T10:37:29.515Z,1002
2018-04-15T10:38:29.496Z,1001.95
2018-04-15T10:39:29.798Z,1001.98
2018-04-15T10:40:29.468Z,1002
2018-04-15T10:41:29.460Z,1002.02
2018-04-15T10:42:29.436Z,1001.99
2018-04-15T10:43:29.419Z,1002
2018-04-15T10:44:29.411Z,1002.04
2018-04-15T10:45:29.396Z,1001.95
2018-04-15T10:46:29.375Z,1001.91
2018-04-15T10:47:29.362Z,1001.97
2018-04-15T10:48:29.349Z,1001.98
2018-04-15T10:49:29.330Z,1001.93
2018-04-15T10:50:29.319Z,1001.94
2018-04-15T10:51:29.301Z,1001.94
2018-04-15T10:52:29.290Z,1001.95
2018-04-15T10:53:29.269Z,1001.91
2018-04-15T10:54:29.253Z,1001.93
2018-04-15T10:55:29.239Z,1001.87
2018-04-15T10:56:29.231Z,1001.93
2018-04-15T10:57:29.208Z,1001.9
2018-04-15T10:58:29.189Z,1001.88
2018-04-15T10:59:29.174Z,1001.89
2018-04-15T11:00:29.162Z,1001.87
2018-04-15T11:01:29.146Z,1001.85
2018-04-15T11:02:29.127Z,1001.81
2018-04-15T11:03:29.114Z,1001.75
2018-04-15T11:04:29.097Z,1001.74
2018-04-15T11:05:29.088Z,1001.75
2018-04-15T11:06:29.067Z,1001.77
2018-04-15T11:07:29.053Z,1001.74
2018-04-15T11:08:29.038Z,1001.74
2018-04-15T11:09:29.022Z,1001.77
2018-04-15T11:10:29.010Z,1001.69
2018-04-15T11:11:28.993Z,1001.69
2018-04-15T11:12:28.977Z,1001.71
2018-04-15T11:13:28.963Z,1001.67
2018-04-15T11:14:28.950Z,1001.65
2018-04-15T11:15:28.940Z,1001.63
2018-04-15T11:16:28.918Z,1001.64
2018-04-15T11:17:28.907Z,1001.6
2018-04-15T11:18:28.890Z,1001.61
2018-04-15T11:19:28.877Z,1001.64
2018-04-15T11:20:28.863Z,1001.62
2018-04-15T11:21:28.846Z,1001.59
2018-04-15T11:22:28.830Z,1001.62
2018-04-15T11:23:28.815Z,1001.63
2018-04-15T11:24:28.804Z,1001.63
2018-04-15T11:25:28.786Z,1001.63
2018-04-15T11:26:28.771Z,1001.64
2018-04-15T11:27:28.768Z,1001.63
2018-04-15T11:28:28.741Z,1001.59
2018-04-15T11:29:28.727Z,1001.6
2018-04-15T11:30:28.710Z,1001.6
2018-04-15T11:31:28.694Z,1001.57
2018-04-15T11:32:28.723Z,1001.62
2018-04-15T11:33:28.665Z,1001.6
2018-04-15T11:34:28.653Z,1001.54
2018-04-15T11:35:28.635Z,1001.63
2018-04-15T11:36:28.620Z,1001.61
2018-04-15T11:37:28.604Z,1001.61
2018-04-15T11:38:28.612Z,1001.58
2018-04-15T11:39:28.574Z,1001.59
2018-04-15T11:40:28.561Z,1001.6
2018-04-15T11:41:28.545Z,1001.6
2018-04-15T11:42:28.531Z,1001.59
2018-04-15T11:43:28.522Z,1001.58
2018-04-15T11:44:28.501Z,1001.54
2018-04-15T11:45:28.487Z,1001.54
2018-04-15T11:46:28.474Z,1001.55
2018-04-15T11:47:28.459Z,1001.55
2018-04-15T11:48:28.455Z,1001.53
2018-04-15T11:49:28.431Z,1001.54
2018-04-15T11:50:28.415Z,1001.52
2018-04-15T11:51:28.422Z,1001.52
2018-04-15T11:52:28.387Z,1001.49
2018-04-15T11:53:28.374Z,1001.48
2018-04-15T11:54:28.361Z,1001.44
2018-04-15T11:55:28.348Z,1001.46
2018-04-15T11:56:28.332Z,1001.48
2018-04-15T11:57:28.319Z,1001.51
2018-04-15T11:58:28.318Z,1001.56
2018-04-15T11:59:28.291Z,1001.5
2018-04-15T12:00:28.278Z,1001.51
2018-04-15T12:01:28.262Z,1001.56
2018-04-15T12:02:28.249Z,1001.53
2018-04-15T12:03:28.234Z,1001.51
2018-04-15T12:04:28.220Z,1001.51
2018-04-15T12:05:28.207Z,1001.5
2018-04-15T12:06:28.194Z,1001.52
2018-04-15T12:07:28.179Z,1001.48
2018-04-15T12:08:28.166Z,1001.44